St Solene — FVDG — position and weather

sailwx.info

Track history (hours):
 
Tides and Currents Weather Stations Pressure Air Temp Water Temp Dewpoint Dewpoint Depression Visibility Wind Speed Wind Dir Waves Ship Positions

St Solene

Last reported at 2015-Apr-18 06:04 UTC. Time now 2015-Apr-18 07:18 UTC.
Position N 43°10' E 004°53'.

Length 104 m; draft 5.3 m.

Type: Tanker. MMSI: 226302000.

Date/timePositionNaut miles runAvg speedWind from/ knotsBaromVisibWave heightAir tempDewpointWater temp
2015-Apr-18 06:04N 43°10' E 004°53'4312.3
2015-Apr-18 02:33N 43°03' E 003°55'2612.4
2015-Apr-18 00:26N 42°58' E 003°19'12 3.6
2015-Apr-17 21:05N 43°01' E 003°04'0 0.0
2015-Apr-17 08:05N 43°01' E 003°04'21 3.8
2015-Apr-17 02:33N 43°00' E 003°32'1010.0
2015-Apr-17 01:33N 43°02' E 003°46'1010.3
2015-Apr-17 00:33N 43°04' E 003°60'1010.1
2015-Apr-16 23:33N 43°05' E 004°13'1010.3
2015-Apr-16 22:32N 43°07' E 004°27'1010.3
2015-Apr-16 21:33N 43°08' E 004°41'1010.3
2015-Apr-16 20:33N 43°11' E 004°55'8 7.8
2015-Apr-16 19:30N 43°18' E 004°59'6 6.1
2015-Apr-16 18:34N 43°24' E 004°59'0 0.0
2015-Apr-16 17:28N 43°24' E 004°59'0 0.0
2015-Apr-16 16:25N 43°24' E 004°59'0 0.0
2015-Apr-16 15:31N 43°24' E 004°59'0 0.0
2015-Apr-16 14:31N 43°24' E 004°59'0 0.0
2015-Apr-16 13:25N 43°24' E 004°59'0 0.0
2015-Apr-16 12:28N 43°24' E 004°59'0 0.0
2015-Apr-16 11:31N 43°24' E 004°59'0 0.0
2015-Apr-16 10:19N 43°24' E 004°59'0 0.0
2015-Apr-16 09:31N 43°24' E 004°59'0 0.2
2015-Apr-16 08:28N 43°24' E 004°60'0 0.0
2015-Apr-16 07:28N 43°24' E 004°60'0 0.0
2015-Apr-16 06:22N 43°24' E 004°60'0 0.0
2015-Apr-16 05:28N 43°24' E 004°60'0 0.0
2015-Apr-16 04:28N 43°24' E 004°60'0 0.0
2015-Apr-16 03:28N 43°24' E 004°60'0 0.0
2015-Apr-16 02:28N 43°24' E 004°60'0 0.0
2015-Apr-16 01:28N 43°24' E 004°60'0 0.0
2015-Apr-16 00:25N 43°24' E 004°60'0 0.0
2015-Apr-15 23:22N 43°24' E 004°60'0 0.0
2015-Apr-15 22:28N 43°24' E 004°60'0 0.0
2015-Apr-15 21:28N 43°24' E 004°60'0 0.0
2015-Apr-15 20:28N 43°24' E 004°60'0 0.0
2015-Apr-15 19:22N 43°24' E 004°60'0 0.0
2015-Apr-15 18:28N 43°24' E 004°60'0 0.0
2015-Apr-15 17:28N 43°24' E 004°60'0 0.0
2015-Apr-15 16:28N 43°24' E 004°60'0 0.0
2015-Apr-15 15:04N 43°24' E 004°60'0 0.0
2015-Apr-15 14:28N 43°24' E 004°60'0 0.0
2015-Apr-15 13:25N 43°24' E 004°60'0 0.0
2015-Apr-15 12:28N 43°24' E 004°60'0 0.0
2015-Apr-15 11:28N 43°24' E 004°60'0 0.0
2015-Apr-15 10:28N 43°24' E 004°60'0 0.0
2015-Apr-15 09:25N 43°24' E 004°60'0 0.0
2015-Apr-15 08:22N 43°24' E 004°60'0 0.0
2015-Apr-15 07:28N 43°24' E 004°60'0 0.0
2015-Apr-15 06:31N 43°24' E 004°60'0 0.0
2015-Apr-15 05:22N 43°24' E 004°60'0 0.0
2015-Apr-15 04:31N 43°24' E 004°60'0 0.0
2015-Apr-15 03:22N 43°24' E 004°60'0 0.0
2015-Apr-15 02:28N 43°24' E 004°60'0 0.0
2015-Apr-15 01:28N 43°24' E 004°60'0 0.0
2015-Apr-15 00:22N 43°24' E 004°60'0 0.0
2015-Apr-14 23:31N 43°24' E 004°60'0 0.0
2015-Apr-14 22:19N 43°24' E 004°60'0 0.0
2015-Apr-14 21:28N 43°24' E 004°60'0 0.0
2015-Apr-14 20:28N 43°24' E 004°60'0 0.2
2015-Apr-14 19:34N 43°24' E 004°59'3 2.7
2015-Apr-14 18:27N 43°24' E 004°55'0 0.0
2015-Apr-14 17:33N 43°24' E 004°55'0 0.0
2015-Apr-14 16:27N 43°24' E 004°55'0 0.0
2015-Apr-14 15:33N 43°24' E 004°55'0 0.0
2015-Apr-14 14:33N 43°24' E 004°56'0 0.0
2015-Apr-14 13:30N 43°24' E 004°56'0 0.0
2015-Apr-14 12:33N 43°24' E 004°56'0 0.0
2015-Apr-14 11:33N 43°24' E 004°56'0 0.1
2015-Apr-14 10:33N 43°24' E 004°56'0 0.0
2015-Apr-14 09:33N 43°24' E 004°56'0 0.0
2015-Apr-14 08:33N 43°24' E 004°55'0 0.0
2015-Apr-14 07:33N 43°24' E 004°55'0 0.1
2015-Apr-14 06:33N 43°24' E 004°56'0 0.0
2015-Apr-14 05:33N 43°24' E 004°56'0 0.0
2015-Apr-14 04:33N 43°24' E 004°56'0 0.0
2015-Apr-14 03:33N 43°24' E 004°56'0 0.0
2015-Apr-14 02:33N 43°24' E 004°56'0 0.0
2015-Apr-14 01:33N 43°24' E 004°56'0 0.0
2015-Apr-14 00:33N 43°24' E 004°56'0 0.0
2015-Apr-13 23:33N 43°24' E 004°56'0 0.0
2015-Apr-13 22:33N 43°24' E 004°56'0 0.0
2015-Apr-13 21:33N 43°24' E 004°56'0 0.0
2015-Apr-13 20:33N 43°24' E 004°56'0 0.0
2015-Apr-13 19:33N 43°24' E 004°56'0 0.0
2015-Apr-13 18:33N 43°24' E 004°56'0 0.0
2015-Apr-13 17:33N 43°24' E 004°56'0 0.0
2015-Apr-13 16:33N 43°24' E 004°56'0 0.0
2015-Apr-13 15:33N 43°24' E 004°56'0 0.0
2015-Apr-13 14:33N 43°24' E 004°56'0 0.0
2015-Apr-13 13:33N 43°24' E 004°56'0 0.2
2015-Apr-13 12:33N 43°24' E 004°56'2 1.8
2015-Apr-13 11:33N 43°25' E 004°53'0 0.0
2015-Apr-13 10:22N 43°25' E 004°53'0 0.0
2015-Apr-13 09:23N 43°25' E 004°53'0 0.0
2015-Apr-13 08:28N 43°25' E 004°53'0 0.0
2015-Apr-13 07:22N 43°25' E 004°53'0 0.0
2015-Apr-13 06:28N 43°25' E 004°53'0 0.0
2015-Apr-13 05:28N 43°25' E 004°53'0 0.0
2015-Apr-13 04:28N 43°25' E 004°53'0 0.0
2015-Apr-13 03:28N 43°25' E 004°53'0 0.0
2015-Apr-13 02:04N 43°25' E 004°53'0 0.0
2015-Apr-13 01:16N 43°25' E 004°53'0 0.0
2015-Apr-13 00:28N 43°25' E 004°53'0 0.0
2015-Apr-12 23:28N 43°25' E 004°53'0 0.0
2015-Apr-12 22:22N 43°25' E 004°53'0 0.0
2015-Apr-12 21:33N 43°25' E 004°53'0 0.0
2015-Apr-12 20:34N 43°25' E 004°53'2 1.7
2015-Apr-12 19:33N 43°24' E 004°56'0 0.5
2015-Apr-12 18:31N 43°25' E 004°56'0 0.0
2015-Apr-12 17:04N 43°25' E 004°56'0 0.0
2015-Apr-12 16:31N 43°25' E 004°56'0 0.0
2015-Apr-12 15:31N 43°25' E 004°56'0 0.0
2015-Apr-12 14:31N 43°25' E 004°56'0 0.0
2015-Apr-12 13:32N 43°25' E 004°56'0 0.0
2015-Apr-12 12:31N 43°25' E 004°56'0 0.0
2015-Apr-12 11:16N 43°25' E 004°56'0 0.0
2015-Apr-12 10:31N 43°25' E 004°56'0 0.0
2015-Apr-12 09:19N 43°25' E 004°56'0 0.0
2015-Apr-12 08:25N 43°25' E 004°56'0 0.0
2015-Apr-12 07:28N 43°25' E 004°56'0 0.0
2015-Apr-12 06:25N 43°25' E 004°56'0 0.0
2015-Apr-12 05:31N 43°25' E 004°56'0 0.0
2015-Apr-12 04:25N 43°25' E 004°56'0 0.0
2015-Apr-12 03:31N 43°25' E 004°56'0 0.0
2015-Apr-12 02:19N 43°25' E 004°56'0 0.0
2015-Apr-12 01:32N 43°25' E 004°56'0 0.0
2015-Apr-12 00:31N 43°25' E 004°56'0 0.0
2015-Apr-11 23:31N 43°25' E 004°56'0 0.0
2015-Apr-11 22:25N 43°25' E 004°56'0 0.0
2015-Apr-11 21:31N 43°25' E 004°56'0 0.0
2015-Apr-11 20:33N 43°25' E 004°56'0 0.0
2015-Apr-11 19:33N 43°25' E 004°56'0 0.0
2015-Apr-11 18:33N 43°25' E 004°56'0 0.4
2015-Apr-11 17:33N 43°25' E 004°56'2 1.8
2015-Apr-11 16:33N 43°25' E 004°53'0 0.0
2015-Apr-11 15:31N 43°25' E 004°53'0 0.0
2015-Apr-11 14:32N 43°25' E 004°53'0 0.0
2015-Apr-11 13:34N 43°25' E 004°53'0 0.0
2015-Apr-11 12:33N 43°25' E 004°53'0 0.0
2015-Apr-11 11:32N 43°25' E 004°53'0 0.0
2015-Apr-11 10:33N 43°25' E 004°53'0 0.0
2015-Apr-11 09:33N 43°25' E 004°53'0 0.0
2015-Apr-11 08:34N 43°25' E 004°53'0 0.0
2015-Apr-11 07:27N 43°25' E 004°53'4 3.6
2015-Apr-11 06:26N 43°24' E 004°58'0 0.0
2015-Apr-11 05:23N 43°24' E 004°58'0 0.0
2015-Apr-11 04:08N 43°24' E 004°58'0 0.0
2015-Apr-11 03:32N 43°24' E 004°58'0 0.0
2015-Apr-11 02:32N 43°24' E 004°58'0 0.0
2015-Apr-11 01:32N 43°24' E 004°58'0 0.0
2015-Apr-11 00:26N 43°24' E 004°58'0 0.1
2015-Apr-10 23:26N 43°24' E 004°58'0 0.0
2015-Apr-10 22:26N 43°24' E 004°58'0 0.0
2015-Apr-10 21:32N 43°24' E 004°58'0 0.0
2015-Apr-10 20:24N 43°24' E 004°58'0 0.0
2015-Apr-10 19:26N 43°24' E 004°58'0 0.0
2015-Apr-10 18:32N 43°24' E 004°58'0 0.0
2015-Apr-10 17:20N 43°24' E 004°58'0 0.0
2015-Apr-10 16:32N 43°24' E 004°58'0 0.0
2015-Apr-10 15:20N 43°24' E 004°58'0 0.0
2015-Apr-10 14:20N 43°24' E 004°58'0 0.0
2015-Apr-10 13:20N 43°24' E 004°58'0 0.0
2015-Apr-10 12:14N 43°24' E 004°58'0 0.0
2015-Apr-10 11:26N 43°24' E 004°58'0 0.0
2015-Apr-10 10:32N 43°24' E 004°58'0 0.0
2015-Apr-10 09:32N 43°24' E 004°58'0 0.0
2015-Apr-10 08:32N 43°24' E 004°58'0 0.0
2015-Apr-10 07:14N 43°24' E 004°58'0 0.1
2015-Apr-10 06:20N 43°24' E 004°58'0 0.0
2015-Apr-10 05:26N 43°24' E 004°58'0 0.0
2015-Apr-10 04:26N 43°24' E 004°58'0 0.0
2015-Apr-10 03:29N 43°24' E 004°58'0 0.0
2015-Apr-10 02:32N 43°24' E 004°58'0 0.0
2015-Apr-10 01:14N 43°24' E 004°58'0 0.0
2015-Apr-10 00:32N 43°24' E 004°58'0 0.0
2015-Apr-09 23:32N 43°24' E 004°58'0 0.0
2015-Apr-09 22:26N 43°24' E 004°58'0 0.0
2015-Apr-09 21:32N 43°24' E 004°58'0 0.0
2015-Apr-09 20:32N 43°24' E 004°58'0 0.0
2015-Apr-09 19:20N 43°24' E 004°58'0 0.0
2015-Apr-09 18:23N 43°24' E 004°58'0 0.0
2015-Apr-09 17:33N 43°24' E 004°58'0 0.0
2015-Apr-09 16:33N 43°24' E 004°58'0 0.0
2015-Apr-09 15:33N 43°24' E 004°58'0 0.0
2015-Apr-09 14:33N 43°24' E 004°58'0 0.0
2015-Apr-09 13:33N 43°24' E 004°58'0 0.0
2015-Apr-09 12:33N 43°24' E 004°58'10 9.5
2015-Apr-09 11:33N 43°14' E 005°01'1711.6
2015-Apr-09 10:06N 43°00' E 004°49'1212.3
2015-Apr-09 09:08N 42°51' E 004°39'711.8
2015-Apr-09 08:33N 42°46' E 004°33'1312.1
2015-Apr-09 07:31N 42°36' E 004°23'1412.1
2015-Apr-09 06:22N 42°25' E 004°11'2312.1
2015-Apr-09 04:29N 42°07' E 003°51'8712.2
2015-Apr-08 21:25N 41°16' E 002°17'7 7.7
2015-Apr-08 20:31N 41°20' E 002°10'  
Track history (hours):
 
Tides and Currents Weather Stations Pressure Air Temp Water Temp Dewpoint Dewpoint Depression Visibility Wind Speed Wind Dir Waves Ship Positions

St Solene

Last reported at 2015-Apr-18 06:04 UTC. Time now 2015-Apr-18 07:18 UTC.
Position N 43°10' E 004°53'.

Length 104 m; draft 5.3 m.

Type: Tanker. MMSI: 226302000.

Date/timePositionNaut miles runAvg speedWind from/ knotsBaromVisibWave heightAir tempDewpointWater temp
2015-Apr-18 06:04N 43°10' E 004°53'4312.3
2015-Apr-18 02:33N 43°03' E 003°55'2612.4
2015-Apr-18 00:26N 42°58' E 003°19'12 3.6
2015-Apr-17 21:05N 43°01' E 003°04'0 0.0
2015-Apr-17 08:05N 43°01' E 003°04'21 3.8
2015-Apr-17 02:33N 43°00' E 003°32'1010.0
2015-Apr-17 01:33N 43°02' E 003°46'1010.3
2015-Apr-17 00:33N 43°04' E 003°60'1010.1
2015-Apr-16 23:33N 43°05' E 004°13'1010.3
2015-Apr-16 22:32N 43°07' E 004°27'1010.3
2015-Apr-16 21:33N 43°08' E 004°41'1010.3
2015-Apr-16 20:33N 43°11' E 004°55'8 7.8
2015-Apr-16 19:30N 43°18' E 004°59'6 6.1
2015-Apr-16 18:34N 43°24' E 004°59'0 0.0
2015-Apr-16 17:28N 43°24' E 004°59'0 0.0
2015-Apr-16 16:25N 43°24' E 004°59'0 0.0
2015-Apr-16 15:31N 43°24' E 004°59'0 0.0
2015-Apr-16 14:31N 43°24' E 004°59'0 0.0
2015-Apr-16 13:25N 43°24' E 004°59'0 0.0
2015-Apr-16 12:28N 43°24' E 004°59'0 0.0
2015-Apr-16 11:31N 43°24' E 004°59'0 0.0
2015-Apr-16 10:19N 43°24' E 004°59'0 0.0
2015-Apr-16 09:31N 43°24' E 004°59'0 0.2
2015-Apr-16 08:28N 43°24' E 004°60'0 0.0
2015-Apr-16 07:28N 43°24' E 004°60'0 0.0
2015-Apr-16 06:22N 43°24' E 004°60'0 0.0
2015-Apr-16 05:28N 43°24' E 004°60'0 0.0
2015-Apr-16 04:28N 43°24' E 004°60'0 0.0
2015-Apr-16 03:28N 43°24' E 004°60'0 0.0
2015-Apr-16 02:28N 43°24' E 004°60'0 0.0
2015-Apr-16 01:28N 43°24' E 004°60'0 0.0
2015-Apr-16 00:25N 43°24' E 004°60'0 0.0
2015-Apr-15 23:22N 43°24' E 004°60'0 0.0
2015-Apr-15 22:28N 43°24' E 004°60'0 0.0
2015-Apr-15 21:28N 43°24' E 004°60'0 0.0
2015-Apr-15 20:28N 43°24' E 004°60'0 0.0
2015-Apr-15 19:22N 43°24' E 004°60'0 0.0
2015-Apr-15 18:28N 43°24' E 004°60'0 0.0
2015-Apr-15 17:28N 43°24' E 004°60'0 0.0
2015-Apr-15 16:28N 43°24' E 004°60'0 0.0
2015-Apr-15 15:04N 43°24' E 004°60'0 0.0
2015-Apr-15 14:28N 43°24' E 004°60'0 0.0
2015-Apr-15 13:25N 43°24' E 004°60'0 0.0
2015-Apr-15 12:28N 43°24' E 004°60'0 0.0
2015-Apr-15 11:28N 43°24' E 004°60'0 0.0
2015-Apr-15 10:28N 43°24' E 004°60'0 0.0
2015-Apr-15 09:25N 43°24' E 004°60'0 0.0
2015-Apr-15 08:22N 43°24' E 004°60'0 0.0
2015-Apr-15 07:28N 43°24' E 004°60'0 0.0
2015-Apr-15 06:31N 43°24' E 004°60'0 0.0
2015-Apr-15 05:22N 43°24' E 004°60'0 0.0
2015-Apr-15 04:31N 43°24' E 004°60'0 0.0
2015-Apr-15 03:22N 43°24' E 004°60'0 0.0
2015-Apr-15 02:28N 43°24' E 004°60'0 0.0
2015-Apr-15 01:28N 43°24' E 004°60'0 0.0
2015-Apr-15 00:22N 43°24' E 004°60'0 0.0
2015-Apr-14 23:31N 43°24' E 004°60'0 0.0
2015-Apr-14 22:19N 43°24' E 004°60'0 0.0
2015-Apr-14 21:28N 43°24' E 004°60'0 0.0
2015-Apr-14 20:28N 43°24' E 004°60'0 0.2
2015-Apr-14 19:34N 43°24' E 004°59'3 2.7
2015-Apr-14 18:27N 43°24' E 004°55'0 0.0
2015-Apr-14 17:33N 43°24' E 004°55'0 0.0
2015-Apr-14 16:27N 43°24' E 004°55'0 0.0
2015-Apr-14 15:33N 43°24' E 004°55'0 0.0
2015-Apr-14 14:33N 43°24' E 004°56'0 0.0
2015-Apr-14 13:30N 43°24' E 004°56'0 0.0
2015-Apr-14 12:33N 43°24' E 004°56'0 0.0
2015-Apr-14 11:33N 43°24' E 004°56'0 0.1
2015-Apr-14 10:33N 43°24' E 004°56'0 0.0
2015-Apr-14 09:33N 43°24' E 004°56'0 0.0
2015-Apr-14 08:33N 43°24' E 004°55'0 0.0
2015-Apr-14 07:33N 43°24' E 004°55'0 0.1
2015-Apr-14 06:33N 43°24' E 004°56'0 0.0
2015-Apr-14 05:33N 43°24' E 004°56'0 0.0
2015-Apr-14 04:33N 43°24' E 004°56'0 0.0
2015-Apr-14 03:33N 43°24' E 004°56'0 0.0
2015-Apr-14 02:33N 43°24' E 004°56'0 0.0
2015-Apr-14 01:33N 43°24' E 004°56'0 0.0
2015-Apr-14 00:33N 43°24' E 004°56'0 0.0
2015-Apr-13 23:33N 43°24' E 004°56'0 0.0
2015-Apr-13 22:33N 43°24' E 004°56'0 0.0
2015-Apr-13 21:33N 43°24' E 004°56'0 0.0
2015-Apr-13 20:33N 43°24' E 004°56'0 0.0
2015-Apr-13 19:33N 43°24' E 004°56'0 0.0
2015-Apr-13 18:33N 43°24' E 004°56'0 0.0
2015-Apr-13 17:33N 43°24' E 004°56'0 0.0
2015-Apr-13 16:33N 43°24' E 004°56'0 0.0
2015-Apr-13 15:33N 43°24' E 004°56'0 0.0
2015-Apr-13 14:33N 43°24' E 004°56'0 0.0
2015-Apr-13 13:33N 43°24' E 004°56'0 0.2
2015-Apr-13 12:33N 43°24' E 004°56'2 1.8
2015-Apr-13 11:33N 43°25' E 004°53'0 0.0
2015-Apr-13 10:22N 43°25' E 004°53'0 0.0
2015-Apr-13 09:23N 43°25' E 004°53'0 0.0
2015-Apr-13 08:28N 43°25' E 004°53'0 0.0
2015-Apr-13 07:22N 43°25' E 004°53'0 0.0
2015-Apr-13 06:28N 43°25' E 004°53'0 0.0
2015-Apr-13 05:28N 43°25' E 004°53'0 0.0
2015-Apr-13 04:28N 43°25' E 004°53'0 0.0
2015-Apr-13 03:28N 43°25' E 004°53'0 0.0
2015-Apr-13 02:04N 43°25' E 004°53'0 0.0
2015-Apr-13 01:16N 43°25' E 004°53'0 0.0
2015-Apr-13 00:28N 43°25' E 004°53'0 0.0
2015-Apr-12 23:28N 43°25' E 004°53'0 0.0
2015-Apr-12 22:22N 43°25' E 004°53'0 0.0
2015-Apr-12 21:33N 43°25' E 004°53'0 0.0
2015-Apr-12 20:34N 43°25' E 004°53'2 1.7
2015-Apr-12 19:33N 43°24' E 004°56'0 0.5
2015-Apr-12 18:31N 43°25' E 004°56'0 0.0
2015-Apr-12 17:04N 43°25' E 004°56'0 0.0
2015-Apr-12 16:31N 43°25' E 004°56'0 0.0
2015-Apr-12 15:31N 43°25' E 004°56'0 0.0
2015-Apr-12 14:31N 43°25' E 004°56'0 0.0
2015-Apr-12 13:32N 43°25' E 004°56'0 0.0
2015-Apr-12 12:31N 43°25' E 004°56'0 0.0
2015-Apr-12 11:16N 43°25' E 004°56'0 0.0
2015-Apr-12 10:31N 43°25' E 004°56'0 0.0
2015-Apr-12 09:19N 43°25' E 004°56'0 0.0
2015-Apr-12 08:25N 43°25' E 004°56'0 0.0
2015-Apr-12 07:28N 43°25' E 004°56'0 0.0
2015-Apr-12 06:25N 43°25' E 004°56'0 0.0
2015-Apr-12 05:31N 43°25' E 004°56'0 0.0
2015-Apr-12 04:25N 43°25' E 004°56'0 0.0
2015-Apr-12 03:31N 43°25' E 004°56'0 0.0
2015-Apr-12 02:19N 43°25' E 004°56'0 0.0
2015-Apr-12 01:32N 43°25' E 004°56'0 0.0
2015-Apr-12 00:31N 43°25' E 004°56'0 0.0
2015-Apr-11 23:31N 43°25' E 004°56'0 0.0
2015-Apr-11 22:25N 43°25' E 004°56'0 0.0
2015-Apr-11 21:31N 43°25' E 004°56'0 0.0
2015-Apr-11 20:33N 43°25' E 004°56'0 0.0
2015-Apr-11 19:33N 43°25' E 004°56'0 0.0
2015-Apr-11 18:33N 43°25' E 004°56'0 0.4
2015-Apr-11 17:33N 43°25' E 004°56'2 1.8
2015-Apr-11 16:33N 43°25' E 004°53'0 0.0
2015-Apr-11 15:31N 43°25' E 004°53'0 0.0
2015-Apr-11 14:32N 43°25' E 004°53'0 0.0
2015-Apr-11 13:34N 43°25' E 004°53'0 0.0
2015-Apr-11 12:33N 43°25' E 004°53'0 0.0
2015-Apr-11 11:32N 43°25' E 004°53'0 0.0
2015-Apr-11 10:33N 43°25' E 004°53'0 0.0
2015-Apr-11 09:33N 43°25' E 004°53'0 0.0
2015-Apr-11 08:34N 43°25' E 004°53'0 0.0
2015-Apr-11 07:27N 43°25' E 004°53'4 3.6
2015-Apr-11 06:26N 43°24' E 004°58'0 0.0
2015-Apr-11 05:23N 43°24' E 004°58'0 0.0
2015-Apr-11 04:08N 43°24' E 004°58'0 0.0
2015-Apr-11 03:32N 43°24' E 004°58'0 0.0
2015-Apr-11 02:32N 43°24' E 004°58'0 0.0
2015-Apr-11 01:32N 43°24' E 004°58'0 0.0
2015-Apr-11 00:26N 43°24' E 004°58'0 0.1
2015-Apr-10 23:26N 43°24' E 004°58'0 0.0
2015-Apr-10 22:26N 43°24' E 004°58'0 0.0
2015-Apr-10 21:32N 43°24' E 004°58'0 0.0
2015-Apr-10 20:24N 43°24' E 004°58'0 0.0
2015-Apr-10 19:26N 43°24' E 004°58'0 0.0
2015-Apr-10 18:32N 43°24' E 004°58'0 0.0
2015-Apr-10 17:20N 43°24' E 004°58'0 0.0
2015-Apr-10 16:32N 43°24' E 004°58'0 0.0
2015-Apr-10 15:20N 43°24' E 004°58'0 0.0
2015-Apr-10 14:20N 43°24' E 004°58'0 0.0
2015-Apr-10 13:20N 43°24' E 004°58'0 0.0
2015-Apr-10 12:14N 43°24' E 004°58'0 0.0
2015-Apr-10 11:26N 43°24' E 004°58'0 0.0
2015-Apr-10 10:32N 43°24' E 004°58'0 0.0
2015-Apr-10 09:32N 43°24' E 004°58'0 0.0
2015-Apr-10 08:32N 43°24' E 004°58'0 0.0
2015-Apr-10 07:14N 43°24' E 004°58'0 0.1
2015-Apr-10 06:20N 43°24' E 004°58'0 0.0
2015-Apr-10 05:26N 43°24' E 004°58'0 0.0
2015-Apr-10 04:26N 43°24' E 004°58'0 0.0
2015-Apr-10 03:29N 43°24' E 004°58'0 0.0
2015-Apr-10 02:32N 43°24' E 004°58'0 0.0
2015-Apr-10 01:14N 43°24' E 004°58'0 0.0
2015-Apr-10 00:32N 43°24' E 004°58'0 0.0
2015-Apr-09 23:32N 43°24' E 004°58'0 0.0
2015-Apr-09 22:26N 43°24' E 004°58'0 0.0
2015-Apr-09 21:32N 43°24' E 004°58'0 0.0
2015-Apr-09 20:32N 43°24' E 004°58'0 0.0
2015-Apr-09 19:20N 43°24' E 004°58'0 0.0
2015-Apr-09 18:23N 43°24' E 004°58'0 0.0
2015-Apr-09 17:33N 43°24' E 004°58'0 0.0
2015-Apr-09 16:33N 43°24' E 004°58'0 0.0
2015-Apr-09 15:33N 43°24' E 004°58'0 0.0
2015-Apr-09 14:33N 43°24' E 004°58'0 0.0
2015-Apr-09 13:33N 43°24' E 004°58'0 0.0
2015-Apr-09 12:33N 43°24' E 004°58'10 9.5
2015-Apr-09 11:33N 43°14' E 005°01'1711.6
2015-Apr-09 10:06N 43°00' E 004°49'1212.3
2015-Apr-09 09:08N 42°51' E 004°39'711.8
2015-Apr-09 08:33N 42°46' E 004°33'1312.1
2015-Apr-09 07:31N 42°36' E 004°23'1412.1
2015-Apr-09 06:22N 42°25' E 004°11'2312.1
2015-Apr-09 04:29N 42°07' E 003°51'8712.2
2015-Apr-08 21:25N 41°16' E 002°17'7 7.7
2015-Apr-08 20:31N 41°20' E 002°10'  

Dump ship's entire track history